Providence, Rhode Island
Current Conditions -  °F | °C
As of 11:51 AM on Sunday 23 Nov 2014 (Local Time) from KPVD Reporting Station
Scattered Clouds Scattered Clouds  
Wind Chill: 55°   Ceiling: Unl
Heat Index: 55°   Visibility: 10mi
Dew Point: 31°   Wind: 10mph
Humidity: 40%   Direction: 220°SW
Pressure: 30.15"   Gusts: NA
Location:  41.82°N, 71.41°W
Report Text: KPVD 231651Z 22009KT 10SM FEW065 SCT095 13/M01 A3015 RMK AO2 SLP211 T01281006
Loading
Personal Weather Stations






























Interactive Weather Map New forecast layout! Learn more

10-Day Weather Forecast

Advertisements
Track Severe Weather on mobile